Pagina principală
METAR-TAF:

METAR-TAF

Aeroporturi :

Honiara, Guadalcanal, Insulele Solomon

Latitudine: 09-25S, longitudine: 160-03E, elevație: 8 m

Observații meteo curente

Raportul a fost făcut în urmă cu 33 de minute, la 10:00 UTC
Vânt calm
Temperatură 26°C
Umiditate 94%
Presiune 1013 hPa
Vizibilitate de 10 km sau mai mult
Nori puțini la o înălțime de 1500 picior

METAR: AGGH 261000Z 00000KT 9999 FEW015 26/25 Q1013

Ora: 21:33 (10:33 UTC)

Prognoză

Raportul a fost făcut în urmă cu 5 ore și 33 de minute, la 05:00 UTC
Prognoză valabilă de la 26 ora 06 UTC la 27 ora 06 UTC
Vânt 10 kt de la Est
Vizibilitate: 1011 m
Nori împrăștiați la o înălțime de 1700 picior
Nori fragmentați la o înălțime de 10000 picior

TAF: AGGH 260500Z 2606/2706 08010KT 9999 SCT017 BKN100 T 30 28 26 24 Q 1010 1012 1013 1011

Observații și prognoze meteo pentru peste 4.000 de aeroporturi (rapoarte METAR și TAF).

Stațiile disponibile sunt reprezentate pe hartă prin puncte galbene și roșii.

Țineți indicatorul mouse-ului pe punctul dorit pentru a vedea denumirea stației.

Apoi, faceți clic pentru a vedea observațiile și prognozele meteorologice.

Pentru a schimba harta: Pentru mărire, faceți clic pe butoanele verzi cu cruce neagră; pentru micșorare, pe butonul verde cu o liniuță; pentru hărți învecinate, pe săgețile verzi.


METAR-TAF: